Active alerts

Hennepin
  Details for Hennepin Winter Weather Advisory


weather webcam more information weather webcam


Thunder radar more information blitzortung!


Rain radar more information rain snow radar


Visit our other weather sites:

Template documentation
and downloads

And another site


Nearby METAR Reports

   
EBBR - Brussels International Airport, Belgium
Distance from station: W 9 mi
Updated: Jul 13 2024 8:50 am
Partly Cloudy  
Partly Cloudy  
   Wind: West 9.2 mph
Wind: West 9.2 mph
Temperature: 62.6°F
Dew Point: 53.6°F
Humidity: 73%
Barometer: 29.91 inHg
Clouds: Partly Cloudy
Visibility: More than 6 mi
Cloud details: Partly Cloudy 3200 ft
EBBR 131350Z 28008KT 240V320 9999 SCT032 17/12 Q1013 NOSIG
EBBE - Beauvechain (Bevekom), Belgium
Distance from station: SSE 10 mi
Updated: Jul 13 2024 8:55 am
Mostly Cloudy  
Mostly Cloudy  
   Wind: WNW 9.2 mph
Wind: WNW 9.2 mph
Temperature: 62.6°F
Dew Point: 51.8°F
Humidity: 68%
Barometer: 29.91 inHg
Clouds: Mostly Cloudy
Visibility: More than 6 mi
Cloud details: Few Clouds 3800 ft,
Mostly Cloudy 5000 ft,
Mostly Cloudy 8000 ft
EBBE 131355Z AUTO 29008KT 9999 FEW038/// BKN050/// BKN080/// 17/11 Q1013 BLU
EBDT - Schaffen, Belgium
Distance from station: ENE 18 mi
Updated: Jul 13 2024 8:55 am
Mostly Cloudy  
Mostly Cloudy  
   Wind: WSW 8.1 mph
Wind: WSW 8.1 mph
Temperature: 64.4°F
Dew Point: 51.8°F
Humidity: 64%
Barometer: 29.91 inHg
Clouds: Mostly Cloudy
Visibility: More than 6 mi
Cloud details: Partly Cloudy 5300 ft,
Mostly Cloudy 7100 ft
EBDT 131355Z AUTO 24007KT 9999 SCT053/// BKN071/// 18/11 Q1013 BLU
EBAW - Antwerp/Deurne, Belgium
Distance from station: NNW 23 mi
Updated: Jul 13 2024 8:50 am
Partly Cloudy  
Partly Cloudy  
   Wind: West 16.1 mph
Wind: West 16.1 mph
Temperature: 62.6°F
Dew Point: 51.8°F
Humidity: 68%
Barometer: 29.91 inHg
Clouds: Partly Cloudy
Visibility: More than 6 mi
Cloud details: Partly Cloudy 2600 ft
EBAW 131350Z 27014KT 230V290 9999 SCT026 17/11 Q1013 NOSIG
EBCI - Charleroi/Gosselies, Belgium
Distance from station: SSW 32 mi
Updated: Jul 13 2024 8:50 am
Few Clouds  
Few Clouds  
   Wind: WSW 11.5 mph
Wind: WSW 11.5 mph
Temperature: 64.4°F
Dew Point: 51.8°F
Humidity: 64%
Barometer: 29.94 inHg
Clouds: Few Clouds
Visibility: More than 6 mi
Cloud details: Few Clouds 3500 ft
EBCI 131350Z 24010KT 220V280 9999 FEW035 18/11 Q1014 NOSIG
EBLG - Bierset/Liege, Belgium
Distance from station: ESE 38 mi
Updated: Jul 13 2024 8:50 am
Partly Cloudy  
Partly Cloudy  
   Wind: West 9.2 mph
Wind: West 9.2 mph
Temperature: 64.4°F
Dew Point: 50°F
Humidity: 60%
Barometer: 29.94 inHg
Clouds: Partly Cloudy
Visibility: More than 6 mi
Cloud details: Partly Cloudy 3000 ft
EBLG 131350Z 27008KT 230V300 9999 SCT030 18/10 Q1014 NOSIG

Script developed by  Saratoga-weather.org Adapted for the template by  Weerstation Leuven

You find our weather info also at:

Weather Underground

Midwestern Weather Network

Citizen Weather Observer Program (CWOP)

HAMweather, WeatherForYou, PWS Weather

Equipment we use:

Weather-station
Davis VP2

Weather-program
Cumulus

Davis VP2

Cumulus